sensor_id;sensor_type;location;lat;lon;timestamp;P1;durP1;ratioP1;P2;durP2;ratioP2
18162;SDS011;9206;50.994;4.538;2023-08-17T00:01:55;4.78;;;1.92;;
18162;SDS011;9206;50.994;4.538;2023-08-17T00:04:46;2.58;;;2.10;;
18162;SDS011;9206;50.994;4.538;2023-08-17T00:07:37;3.13;;;2.00;;
18162;SDS011;9206;50.994;4.538;2023-08-17T00:10:24;2.50;;;2.30;;
18162;SDS011;9206;50.994;4.538;2023-08-17T00:13:13;2.35;;;2.20;;
18162;SDS011;9206;50.994;4.538;2023-08-17T00:16:04;2.38;;;2.28;;
18162;SDS011;9206;50.994;4.538;2023-08-17T00:21:43;2.60;;;2.30;;
18162;SDS011;9206;50.994;4.538;2023-08-17T00:24:31;2.38;;;2.10;;
18162;SDS011;9206;50.994;4.538;2023-08-17T00:27:19;3.38;;;2.70;;
18162;SDS011;9206;50.994;4.538;2023-08-17T00:30:08;3.50;;;2.72;;
18162;SDS011;9206;50.994;4.538;2023-08-17T00:33:00;2.60;;;2.50;;
18162;SDS011;9206;50.994;4.538;2023-08-17T00:35:51;4.97;;;2.45;;
18162;SDS011;9206;50.994;4.538;2023-08-17T00:38:38;2.60;;;2.40;;
18162;SDS011;9206;50.994;4.538;2023-08-17T00:41:29;2.20;;;2.10;;
18162;SDS011;9206;50.994;4.538;2023-08-17T00:44:20;2.45;;;2.35;;
18162;SDS011;9206;50.994;4.538;2023-08-17T00:47:08;2.83;;;2.63;;
18162;SDS011;9206;50.994;4.538;2023-08-17T00:49:57;2.53;;;2.30;;
18162;SDS011;9206;50.994;4.538;2023-08-17T00:52:48;2.92;;;2.72;;
18162;SDS011;9206;50.994;4.538;2023-08-17T00:55:38;2.60;;;2.50;;
18162;SDS011;9206;50.994;4.538;2023-08-17T00:58:31;4.15;;;2.80;;
18162;SDS011;9206;50.994;4.538;2023-08-17T01:01:23;3.40;;;2.85;;
18162;SDS011;9206;50.994;4.538;2023-08-17T01:07:04;5.40;;;2.95;;
18162;SDS011;9206;50.994;4.538;2023-08-17T01:09:53;3.40;;;2.80;;
18162;SDS011;9206;50.994;4.538;2023-08-17T01:15:40;5.40;;;2.78;;
18162;SDS011;9206;50.994;4.538;2023-08-17T01:18:34;3.22;;;2.70;;
18162;SDS011;9206;50.994;4.538;2023-08-17T01:24:26;3.58;;;2.75;;
18162;SDS011;9206;50.994;4.538;2023-08-17T01:27:19;7.15;;;2.70;;
18162;SDS011;9206;50.994;4.538;2023-08-17T01:30:07;4.88;;;2.92;;
18162;SDS011;9206;50.994;4.538;2023-08-17T01:32:58;4.90;;;2.75;;
18162;SDS011;9206;50.994;4.538;2023-08-17T01:35:57;2.97;;;2.78;;
18162;SDS011;9206;50.994;4.538;2023-08-17T01:38:51;4.60;;;2.58;;
18162;SDS011;9206;50.994;4.538;2023-08-17T01:41:48;3.13;;;2.90;;
18162;SDS011;9206;50.994;4.538;2023-08-17T01:44:37;5.40;;;2.83;;
18162;SDS011;9206;50.994;4.538;2023-08-17T01:47:28;4.60;;;2.95;;
18162;SDS011;9206;50.994;4.538;2023-08-17T01:50:23;4.57;;;3.00;;
18162;SDS011;9206;50.994;4.538;2023-08-17T01:53:10;3.13;;;2.47;;
18162;SDS011;9206;50.994;4.538;2023-08-17T01:56:00;3.10;;;2.78;;
18162;SDS011;9206;50.994;4.538;2023-08-17T01:58:52;3.63;;;2.85;;
18162;SDS011;9206;50.994;4.538;2023-08-17T02:01:41;2.95;;;2.70;;
18162;SDS011;9206;50.994;4.538;2023-08-17T02:04:31;3.00;;;2.80;;
18162;SDS011;9206;50.994;4.538;2023-08-17T02:07:19;3.33;;;3.03;;
18162;SDS011;9206;50.994;4.538;2023-08-17T02:10:06;4.80;;;3.05;;
18162;SDS011;9206;50.994;4.538;2023-08-17T02:12:55;3.90;;;2.80;;
18162;SDS011;9206;50.994;4.538;2023-08-17T02:18:38;4.18;;;2.80;;
18162;SDS011;9206;50.994;4.538;2023-08-17T02:21:25;4.22;;;2.80;;
18162;SDS011;9206;50.994;4.538;2023-08-17T02:24:19;4.68;;;3.20;;
18162;SDS011;9206;50.994;4.538;2023-08-17T02:27:07;4.72;;;2.80;;
18162;SDS011;9206;50.994;4.538;2023-08-17T02:29:55;2.95;;;2.72;;
18162;SDS011;9206;50.994;4.538;2023-08-17T02:32:54;2.70;;;2.50;;
18162;SDS011;9206;50.994;4.538;2023-08-17T02:35:42;5.55;;;3.17;;
18162;SDS011;9206;50.994;4.538;2023-08-17T02:38:31;2.95;;;2.75;;
18162;SDS011;9206;50.994;4.538;2023-08-17T02:41:19;5.70;;;2.70;;
18162;SDS011;9206;50.994;4.538;2023-08-17T02:44:08;4.78;;;2.70;;
18162;SDS011;9206;50.994;4.538;2023-08-17T02:46:57;3.03;;;2.78;;
18162;SDS011;9206;50.994;4.538;2023-08-17T02:49:54;3.88;;;3.00;;
18162;SDS011;9206;50.994;4.538;2023-08-17T02:52:45;4.05;;;2.80;;
18162;SDS011;9206;50.994;4.538;2023-08-17T02:55:35;4.47;;;2.83;;
18162;SDS011;9206;50.994;4.538;2023-08-17T02:58:28;3.20;;;3.00;;
18162;SDS011;9206;50.994;4.538;2023-08-17T03:01:26;3.75;;;3.20;;
18162;SDS011;9206;50.994;4.538;2023-08-17T03:04:21;4.15;;;3.22;;
18162;SDS011;9206;50.994;4.538;2023-08-17T03:07:10;3.03;;;2.80;;
18162;SDS011;9206;50.994;4.538;2023-08-17T03:10:04;3.47;;;3.13;;
18162;SDS011;9206;50.994;4.538;2023-08-17T03:12:58;6.65;;;3.00;;
18162;SDS011;9206;50.994;4.538;2023-08-17T03:15:52;3.95;;;2.88;;
18162;SDS011;9206;50.994;4.538;2023-08-17T03:18:41;3.42;;;3.13;;
18162;SDS011;9206;50.994;4.538;2023-08-17T03:21:31;4.72;;;3.33;;
18162;SDS011;9206;50.994;4.538;2023-08-17T03:24:26;5.50;;;3.28;;
18162;SDS011;9206;50.994;4.538;2023-08-17T03:27:17;3.30;;;2.90;;
18162;SDS011;9206;50.994;4.538;2023-08-17T03:30:11;6.13;;;3.15;;
18162;SDS011;9206;50.994;4.538;2023-08-17T03:36:33;4.60;;;3.13;;
18162;SDS011;9206;50.994;4.538;2023-08-17T03:39:22;3.30;;;2.95;;
18162;SDS011;9206;50.994;4.538;2023-08-17T03:42:19;4.22;;;3.10;;
18162;SDS011;9206;50.994;4.538;2023-08-17T03:45:15;2.90;;;2.70;;
18162;SDS011;9206;50.994;4.538;2023-08-17T03:48:10;3.63;;;3.33;;
18162;SDS011;9206;50.994;4.538;2023-08-17T03:50:59;4.05;;;3.53;;
18162;SDS011;9206;50.994;4.538;2023-08-17T03:53:58;3.83;;;3.53;;
18162;SDS011;9206;50.994;4.538;2023-08-17T03:56:48;6.03;;;3.50;;
18162;SDS011;9206;50.994;4.538;2023-08-17T03:59:36;3.65;;;3.30;;
18162;SDS011;9206;50.994;4.538;2023-08-17T04:02:25;3.00;;;2.70;;
18162;SDS011;9206;50.994;4.538;2023-08-17T04:05:14;6.28;;;3.38;;
18162;SDS011;9206;50.994;4.538;2023-08-17T04:08:01;5.00;;;2.60;;
18162;SDS011;9206;50.994;4.538;2023-08-17T04:10:51;6.22;;;3.40;;
18162;SDS011;9206;50.994;4.538;2023-08-17T04:13:40;4.60;;;3.45;;
18162;SDS011;9206;50.994;4.538;2023-08-17T04:16:27;3.88;;;3.10;;
18162;SDS011;9206;50.994;4.538;2023-08-17T04:19:21;3.88;;;2.90;;
18162;SDS011;9206;50.994;4.538;2023-08-17T04:22:10;3.08;;;2.78;;
18162;SDS011;9206;50.994;4.538;2023-08-17T04:25:06;7.28;;;3.53;;
18162;SDS011;9206;50.994;4.538;2023-08-17T04:28:02;3.55;;;3.25;;
18162;SDS011;9206;50.994;4.538;2023-08-17T04:30:51;6.15;;;3.15;;
18162;SDS011;9206;50.994;4.538;2023-08-17T04:33:40;3.22;;;2.85;;
18162;SDS011;9206;50.994;4.538;2023-08-17T04:36:42;3.00;;;2.80;;
18162;SDS011;9206;50.994;4.538;2023-08-17T04:39:35;8.82;;;3.83;;
18162;SDS011;9206;50.994;4.538;2023-08-17T04:42:34;2.90;;;2.70;;
18162;SDS011;9206;50.994;4.538;2023-08-17T04:45:29;3.10;;;2.78;;
18162;SDS011;9206;50.994;4.538;2023-08-17T04:48:19;6.53;;;2.90;;
18162;SDS011;9206;50.994;4.538;2023-08-17T04:51:13;3.17;;;2.95;;
18162;SDS011;9206;50.994;4.538;2023-08-17T04:54:04;3.70;;;2.80;;
18162;SDS011;9206;50.994;4.538;2023-08-17T04:56:59;5.07;;;2.95;;
18162;SDS011;9206;50.994;4.538;2023-08-17T04:59:48;2.90;;;2.70;;
18162;SDS011;9206;50.994;4.538;2023-08-17T05:02:38;2.90;;;2.70;;
18162;SDS011;9206;50.994;4.538;2023-08-17T05:05:32;4.18;;;3.42;;
18162;SDS011;9206;50.994;4.538;2023-08-17T05:08:21;4.15;;;2.88;;
18162;SDS011;9206;50.994;4.538;2023-08-17T05:11:15;6.30;;;3.03;;
18162;SDS011;9206;50.994;4.538;2023-08-17T05:14:02;5.43;;;2.83;;
18162;SDS011;9206;50.994;4.538;2023-08-17T05:16:53;3.60;;;2.97;;
18162;SDS011;9206;50.994;4.538;2023-08-17T05:22:33;3.05;;;2.83;;
18162;SDS011;9206;50.994;4.538;2023-08-17T05:28:18;3.53;;;2.70;;
18162;SDS011;9206;50.994;4.538;2023-08-17T05:31:14;9.32;;;3.35;;
18162;SDS011;9206;50.994;4.538;2023-08-17T05:34:08;2.72;;;2.53;;
18162;SDS011;9206;50.994;4.538;2023-08-17T05:37:02;5.18;;;2.80;;
18162;SDS011;9206;50.994;4.538;2023-08-17T05:42:49;3.90;;;2.90;;
18162;SDS011;9206;50.994;4.538;2023-08-17T05:45:38;5.32;;;2.67;;
18162;SDS011;9206;50.994;4.538;2023-08-17T05:48:29;5.55;;;3.13;;
18162;SDS011;9206;50.994;4.538;2023-08-17T05:51:22;2.97;;;2.58;;
18162;SDS011;9206;50.994;4.538;2023-08-17T05:54:10;6.63;;;2.88;;
18162;SDS011;9206;50.994;4.538;2023-08-17T05:59:56;8.73;;;2.63;;
18162;SDS011;9206;50.994;4.538;2023-08-17T06:02:44;6.05;;;3.05;;
18162;SDS011;9206;50.994;4.538;2023-08-17T06:05:39;5.30;;;3.08;;
18162;SDS011;9206;50.994;4.538;2023-08-17T06:08:29;3.72;;;2.60;;
18162;SDS011;9206;50.994;4.538;2023-08-17T06:11:17;4.68;;;2.78;;
18162;SDS011;9206;50.994;4.538;2023-08-17T06:14:06;2.67;;;2.47;;
18162;SDS011;9206;50.994;4.538;2023-08-17T06:16:53;3.78;;;2.50;;
18162;SDS011;9206;50.994;4.538;2023-08-17T06:19:42;2.83;;;2.63;;
18162;SDS011;9206;50.994;4.538;2023-08-17T06:22:30;4.35;;;2.60;;
18162;SDS011;9206;50.994;4.538;2023-08-17T06:28:31;3.55;;;2.67;;
18162;SDS011;9206;50.994;4.538;2023-08-17T06:31:19;4.65;;;3.00;;
18162;SDS011;9206;50.994;4.538;2023-08-17T06:34:14;4.45;;;2.90;;
18162;SDS011;9206;50.994;4.538;2023-08-17T06:37:02;3.40;;;3.10;;
18162;SDS011;9206;50.994;4.538;2023-08-17T06:39:56;5.57;;;3.72;;
18162;SDS011;9206;50.994;4.538;2023-08-17T06:42:46;10.82;;;4.18;;
18162;SDS011;9206;50.994;4.538;2023-08-17T06:45:34;18.63;;;4.65;;
18162;SDS011;9206;50.994;4.538;2023-08-17T06:51:15;4.22;;;3.92;;
18162;SDS011;9206;50.994;4.538;2023-08-17T06:54:09;5.78;;;3.78;;
18162;SDS011;9206;50.994;4.538;2023-08-17T06:56:58;4.40;;;3.95;;
18162;SDS011;9206;50.994;4.538;2023-08-17T06:59:46;4.97;;;4.00;;
18162;SDS011;9206;50.994;4.538;2023-08-17T07:02:35;6.18;;;3.97;;
18162;SDS011;9206;50.994;4.538;2023-08-17T07:05:24;8.60;;;4.28;;
18162;SDS011;9206;50.994;4.538;2023-08-17T07:08:13;6.30;;;3.75;;
18162;SDS011;9206;50.994;4.538;2023-08-17T07:11:04;10.70;;;4.00;;
18162;SDS011;9206;50.994;4.538;2023-08-17T07:13:54;5.03;;;3.95;;
18162;SDS011;9206;50.994;4.538;2023-08-17T07:16:42;4.18;;;3.83;;
18162;SDS011;9206;50.994;4.538;2023-08-17T07:19:38;8.15;;;3.72;;
18162;SDS011;9206;50.994;4.538;2023-08-17T07:25:23;4.28;;;3.53;;
18162;SDS011;9206;50.994;4.538;2023-08-17T07:28:17;9.48;;;3.97;;
18162;SDS011;9206;50.994;4.538;2023-08-17T07:33:58;46.05;;;13.05;;
18162;SDS011;9206;50.994;4.538;2023-08-17T07:36:51;6.13;;;4.30;;
18162;SDS011;9206;50.994;4.538;2023-08-17T07:39:43;4.68;;;3.50;;
18162;SDS011;9206;50.994;4.538;2023-08-17T07:42:36;5.25;;;3.33;;
18162;SDS011;9206;50.994;4.538;2023-08-17T07:45:26;4.55;;;3.40;;
18162;SDS011;9206;50.994;4.538;2023-08-17T07:48:13;6.78;;;3.25;;
18162;SDS011;9206;50.994;4.538;2023-08-17T07:51:02;4.50;;;3.15;;
18162;SDS011;9206;50.994;4.538;2023-08-17T07:53:49;4.57;;;3.25;;
18162;SDS011;9206;50.994;4.538;2023-08-17T07:56:38;5.95;;;4.00;;
18162;SDS011;9206;50.994;4.538;2023-08-17T07:59:27;3.30;;;3.00;;
18162;SDS011;9206;50.994;4.538;2023-08-17T08:02:15;3.53;;;3.03;;
18162;SDS011;9206;50.994;4.538;2023-08-17T08:05:06;3.70;;;3.15;;
18162;SDS011;9206;50.994;4.538;2023-08-17T08:07:57;4.43;;;3.28;;
18162;SDS011;9206;50.994;4.538;2023-08-17T08:10:52;6.82;;;5.60;;
18162;SDS011;9206;50.994;4.538;2023-08-17T08:13:43;5.15;;;3.40;;
18162;SDS011;9206;50.994;4.538;2023-08-17T08:16:40;6.53;;;3.67;;
18162;SDS011;9206;50.994;4.538;2023-08-17T08:19:32;5.07;;;4.10;;
18162;SDS011;9206;50.994;4.538;2023-08-17T08:22:23;4.45;;;3.95;;
18162;SDS011;9206;50.994;4.538;2023-08-17T08:25:11;4.22;;;3.80;;
18162;SDS011;9206;50.994;4.538;2023-08-17T08:28:02;5.90;;;3.95;;
18162;SDS011;9206;50.994;4.538;2023-08-17T08:30:51;9.25;;;3.90;;
18162;SDS011;9206;50.994;4.538;2023-08-17T08:36:31;5.75;;;3.60;;
18162;SDS011;9206;50.994;4.538;2023-08-17T08:39:25;4.10;;;3.78;;
18162;SDS011;9206;50.994;4.538;2023-08-17T08:45:07;7.97;;;3.60;;
18162;SDS011;9206;50.994;4.538;2023-08-17T08:48:05;6.78;;;3.58;;
18162;SDS011;9206;50.994;4.538;2023-08-17T08:51:08;6.28;;;3.10;;
18162;SDS011;9206;50.994;4.538;2023-08-17T08:54:01;7.13;;;3.85;;
18162;SDS011;9206;50.994;4.538;2023-08-17T08:56:54;10.55;;;4.72;;
18162;SDS011;9206;50.994;4.538;2023-08-17T08:59:48;6.80;;;4.47;;
18162;SDS011;9206;50.994;4.538;2023-08-17T09:02:37;4.10;;;3.30;;
18162;SDS011;9206;50.994;4.538;2023-08-17T09:05:47;6.35;;;3.60;;
18162;SDS011;9206;50.994;4.538;2023-08-17T09:08:40;7.32;;;4.03;;
18162;SDS011;9206;50.994;4.538;2023-08-17T09:11:32;5.32;;;4.40;;
18162;SDS011;9206;50.994;4.538;2023-08-17T09:14:27;5.82;;;4.20;;
18162;SDS011;9206;50.994;4.538;2023-08-17T09:17:31;7.82;;;4.00;;
18162;SDS011;9206;50.994;4.538;2023-08-17T09:23:28;8.20;;;4.18;;
18162;SDS011;9206;50.994;4.538;2023-08-17T09:29:16;6.18;;;4.13;;
18162;SDS011;9206;50.994;4.538;2023-08-17T09:32:07;7.65;;;4.22;;
18162;SDS011;9206;50.994;4.538;2023-08-17T09:34:56;5.90;;;3.67;;
18162;SDS011;9206;50.994;4.538;2023-08-17T09:37:44;4.88;;;3.90;;
18162;SDS011;9206;50.994;4.538;2023-08-17T09:40:39;5.85;;;3.90;;
18162;SDS011;9206;50.994;4.538;2023-08-17T09:46:22;5.18;;;4.30;;
18162;SDS011;9206;50.994;4.538;2023-08-17T09:49:13;4.78;;;4.25;;
18162;SDS011;9206;50.994;4.538;2023-08-17T09:52:02;4.75;;;4.28;;
18162;SDS011;9206;50.994;4.538;2023-08-17T09:54:52;4.57;;;4.00;;
18162;SDS011;9206;50.994;4.538;2023-08-17T09:57:44;8.20;;;3.92;;
18162;SDS011;9206;50.994;4.538;2023-08-17T10:00:38;6.13;;;3.95;;
18162;SDS011;9206;50.994;4.538;2023-08-17T10:03:39;5.75;;;3.50;;
18162;SDS011;9206;50.994;4.538;2023-08-17T10:06:31;5.88;;;4.18;;
18162;SDS011;9206;50.994;4.538;2023-08-17T10:09:39;7.00;;;4.28;;
18162;SDS011;9206;50.994;4.538;2023-08-17T10:12:42;4.93;;;4.20;;
18162;SDS011;9206;50.994;4.538;2023-08-17T10:15:41;5.95;;;4.60;;
18162;SDS011;9206;50.994;4.538;2023-08-17T11:03:09;6.95;;;6.28;;
18162;SDS011;9206;50.994;4.538;2023-08-17T11:10:10;7.05;;;6.30;;
18162;SDS011;9206;50.994;4.538;2023-08-17T11:13:07;9.02;;;6.45;;
18162;SDS011;9206;50.994;4.538;2023-08-17T11:19:00;9.00;;;6.57;;
18162;SDS011;9206;50.994;4.538;2023-08-17T11:21:53;6.13;;;5.63;;
18162;SDS011;9206;50.994;4.538;2023-08-17T11:24:58;6.80;;;6.03;;
18162;SDS011;9206;50.994;4.538;2023-08-17T11:27:51;8.38;;;7.60;;
18162;SDS011;9206;50.994;4.538;2023-08-17T11:48:37;10.40;;;9.10;;
18162;SDS011;9206;50.994;4.538;2023-08-17T11:51:28;12.43;;;9.95;;
18162;SDS011;9206;50.994;4.538;2023-08-17T11:54:24;16.23;;;9.55;;
18162;SDS011;9206;50.994;4.538;2023-08-17T11:57:12;10.82;;;9.88;;
18162;SDS011;9206;50.994;4.538;2023-08-17T12:00:08;11.18;;;10.07;;
18162;SDS011;9206;50.994;4.538;2023-08-17T12:03:14;13.52;;;10.05;;
18162;SDS011;9206;50.994;4.538;2023-08-17T12:06:12;11.65;;;9.55;;
18162;SDS011;9206;50.994;4.538;2023-08-17T12:09:05;12.10;;;9.02;;
18162;SDS011;9206;50.994;4.538;2023-08-17T12:12:08;11.93;;;10.73;;
18162;SDS011;9206;50.994;4.538;2023-08-17T12:15:31;14.75;;;10.07;;
18162;SDS011;9206;50.994;4.538;2023-08-17T12:21:45;11.80;;;9.57;;
18162;SDS011;9206;50.994;4.538;2023-08-17T12:24:50;10.65;;;9.60;;
18162;SDS011;9206;50.994;4.538;2023-08-17T12:27:42;10.20;;;9.30;;
18162;SDS011;9206;50.994;4.538;2023-08-17T12:30:39;11.43;;;10.52;;
18162;SDS011;9206;50.994;4.538;2023-08-17T12:33:27;10.65;;;9.65;;
18162;SDS011;9206;50.994;4.538;2023-08-17T12:36:15;14.55;;;10.13;;
18162;SDS011;9206;50.994;4.538;2023-08-17T12:41:57;14.00;;;9.77;;
18162;SDS011;9206;50.994;4.538;2023-08-17T12:48:14;9.52;;;8.15;;
18162;SDS011;9206;50.994;4.538;2023-08-17T12:51:02;10.35;;;8.70;;
18162;SDS011;9206;50.994;4.538;2023-08-17T12:53:56;9.43;;;8.50;;
18162;SDS011;9206;50.994;4.538;2023-08-17T12:56:49;8.90;;;8.23;;
18162;SDS011;9206;50.994;4.538;2023-08-17T12:59:40;11.13;;;7.93;;
18162;SDS011;9206;50.994;4.538;2023-08-17T13:02:32;12.00;;;8.52;;
18162;SDS011;9206;50.994;4.538;2023-08-17T13:05:27;8.80;;;7.80;;
18162;SDS011;9206;50.994;4.538;2023-08-17T13:11:25;9.77;;;8.68;;
18162;SDS011;9206;50.994;4.538;2023-08-17T13:14:23;9.05;;;8.10;;
18162;SDS011;9206;50.994;4.538;2023-08-17T13:17:21;12.27;;;9.13;;
18162;SDS011;9206;50.994;4.538;2023-08-17T13:20:34;9.52;;;8.50;;
18162;SDS011;9206;50.994;4.538;2023-08-17T13:23:32;9.75;;;8.70;;
18162;SDS011;9206;50.994;4.538;2023-08-17T13:26:40;10.20;;;8.50;;
18162;SDS011;9206;50.994;4.538;2023-08-17T13:29:28;9.95;;;7.95;;
18162;SDS011;9206;50.994;4.538;2023-08-17T13:35:46;8.68;;;7.78;;
18162;SDS011;9206;50.994;4.538;2023-08-17T13:38:51;9.10;;;8.20;;
18162;SDS011;9206;50.994;4.538;2023-08-17T13:41:52;9.45;;;8.38;;
18162;SDS011;9206;50.994;4.538;2023-08-17T13:44:43;8.82;;;7.90;;
18162;SDS011;9206;50.994;4.538;2023-08-17T13:47:32;8.85;;;8.25;;
18162;SDS011;9206;50.994;4.538;2023-08-17T13:50:28;8.40;;;7.60;;
18162;SDS011;9206;50.994;4.538;2023-08-17T13:53:19;7.88;;;7.07;;
18162;SDS011;9206;50.994;4.538;2023-08-17T13:56:15;8.77;;;8.18;;
18162;SDS011;9206;50.994;4.538;2023-08-17T13:59:12;11.73;;;8.55;;
18162;SDS011;9206;50.994;4.538;2023-08-17T14:02:07;8.10;;;7.40;;
18162;SDS011;9206;50.994;4.538;2023-08-17T14:05:07;8.88;;;7.97;;
18162;SDS011;9206;50.994;4.538;2023-08-17T14:07:59;9.52;;;8.13;;
18162;SDS011;9206;50.994;4.538;2023-08-17T14:10:57;9.70;;;8.25;;
18162;SDS011;9206;50.994;4.538;2023-08-17T14:13:47;9.40;;;8.40;;
18162;SDS011;9206;50.994;4.538;2023-08-17T14:16:35;12.70;;;9.57;;
18162;SDS011;9206;50.994;4.538;2023-08-17T14:22:20;9.85;;;8.75;;
18162;SDS011;9206;50.994;4.538;2023-08-17T14:25:11;9.95;;;9.13;;
18162;SDS011;9206;50.994;4.538;2023-08-17T14:28:07;10.63;;;9.60;;
18162;SDS011;9206;50.994;4.538;2023-08-17T14:30:55;9.77;;;8.88;;
18162;SDS011;9206;50.994;4.538;2023-08-17T14:33:46;14.80;;;9.57;;
18162;SDS011;9206;50.994;4.538;2023-08-17T14:39:59;13.45;;;8.93;;
18162;SDS011;9206;50.994;4.538;2023-08-17T14:42:49;10.55;;;9.45;;
18162;SDS011;9206;50.994;4.538;2023-08-17T14:45:40;9.88;;;8.88;;
18162;SDS011;9206;50.994;4.538;2023-08-17T14:48:34;12.45;;;9.93;;
18162;SDS011;9206;50.994;4.538;2023-08-17T14:51:25;9.93;;;8.88;;
18162;SDS011;9206;50.994;4.538;2023-08-17T14:54:18;10.55;;;9.50;;
18162;SDS011;9206;50.994;4.538;2023-08-17T15:00:44;11.07;;;9.55;;
18162;SDS011;9206;50.994;4.538;2023-08-17T15:03:34;14.38;;;9.32;;
18162;SDS011;9206;50.994;4.538;2023-08-17T15:06:32;9.88;;;9.02;;
18162;SDS011;9206;50.994;4.538;2023-08-17T15:09:22;9.52;;;8.57;;
18162;SDS011;9206;50.994;4.538;2023-08-17T15:15:09;11.73;;;10.52;;
18162;SDS011;9206;50.994;4.538;2023-08-17T15:18:06;15.02;;;10.45;;
18162;SDS011;9206;50.994;4.538;2023-08-17T15:20:55;12.48;;;9.60;;
18162;SDS011;9206;50.994;4.538;2023-08-17T15:24:19;12.13;;;9.85;;
18162;SDS011;9206;50.994;4.538;2023-08-17T15:27:13;11.32;;;10.05;;
18162;SDS011;9206;50.994;4.538;2023-08-17T15:30:31;11.27;;;9.88;;
18162;SDS011;9206;50.994;4.538;2023-08-17T15:33:25;11.15;;;9.88;;
18162;SDS011;9206;50.994;4.538;2023-08-17T15:36:27;12.73;;;10.25;;
18162;SDS011;9206;50.994;4.538;2023-08-17T15:39:23;12.70;;;10.85;;
18162;SDS011;9206;50.994;4.538;2023-08-17T15:42:11;16.52;;;10.85;;
18162;SDS011;9206;50.994;4.538;2023-08-17T15:45:07;12.90;;;10.38;;
18162;SDS011;9206;50.994;4.538;2023-08-17T15:51:09;16.17;;;12.00;;
18162;SDS011;9206;50.994;4.538;2023-08-17T15:53:58;11.32;;;9.95;;
18162;SDS011;9206;50.994;4.538;2023-08-17T15:56:46;12.00;;;10.75;;
18162;SDS011;9206;50.994;4.538;2023-08-17T15:59:46;16.20;;;11.70;;
18162;SDS011;9206;50.994;4.538;2023-08-17T16:02:37;16.38;;;12.13;;
18162;SDS011;9206;50.994;4.538;2023-08-17T16:05:37;15.70;;;12.60;;
18162;SDS011;9206;50.994;4.538;2023-08-17T16:11:52;12.63;;;11.45;;
18162;SDS011;9206;50.994;4.538;2023-08-17T16:14:43;18.95;;;12.82;;
18162;SDS011;9206;50.994;4.538;2023-08-17T16:17:32;13.48;;;12.05;;
18162;SDS011;9206;50.994;4.538;2023-08-17T16:20:49;18.02;;;12.30;;
18162;SDS011;9206;50.994;4.538;2023-08-17T16:23:54;17.25;;;11.52;;
18162;SDS011;9206;50.994;4.538;2023-08-17T16:27:07;17.02;;;11.70;;
18162;SDS011;9206;50.994;4.538;2023-08-17T16:29:57;17.17;;;11.27;;
18162;SDS011;9206;50.994;4.538;2023-08-17T16:32:48;21.23;;;11.63;;
18162;SDS011;9206;50.994;4.538;2023-08-17T16:35:36;17.73;;;12.40;;
18162;SDS011;9206;50.994;4.538;2023-08-17T16:38:24;12.05;;;10.57;;
18162;SDS011;9206;50.994;4.538;2023-08-17T16:47:46;13.45;;;11.15;;
18162;SDS011;9206;50.994;4.538;2023-08-17T16:50:38;12.55;;;10.15;;
18162;SDS011;9206;50.994;4.538;2023-08-17T16:53:26;19.95;;;11.70;;
18162;SDS011;9206;50.994;4.538;2023-08-17T16:56:14;14.73;;;11.15;;
18162;SDS011;9206;50.994;4.538;2023-08-17T16:59:07;14.02;;;11.65;;
18162;SDS011;9206;50.994;4.538;2023-08-17T17:02:03;13.75;;;11.40;;
18162;SDS011;9206;50.994;4.538;2023-08-17T17:04:56;16.25;;;11.15;;
18162;SDS011;9206;50.994;4.538;2023-08-17T17:07:45;13.02;;;11.68;;
18162;SDS011;9206;50.994;4.538;2023-08-17T17:10:36;12.32;;;11.10;;
18162;SDS011;9206;50.994;4.538;2023-08-17T17:13:26;13.93;;;11.35;;
18162;SDS011;9206;50.994;4.538;2023-08-17T17:16:19;17.23;;;12.73;;
18162;SDS011;9206;50.994;4.538;2023-08-17T17:19:15;17.33;;;11.70;;
18162;SDS011;9206;50.994;4.538;2023-08-17T17:22:06;15.27;;;10.95;;
18162;SDS011;9206;50.994;4.538;2023-08-17T17:25:17;14.35;;;11.10;;
18162;SDS011;9206;50.994;4.538;2023-08-17T17:28:11;20.95;;;12.55;;
18162;SDS011;9206;50.994;4.538;2023-08-17T17:37:05;11.45;;;10.43;;
18162;SDS011;9206;50.994;4.538;2023-08-17T17:40:11;18.67;;;12.07;;
18162;SDS011;9206;50.994;4.538;2023-08-17T17:43:00;12.75;;;11.45;;
18162;SDS011;9206;50.994;4.538;2023-08-17T17:45:58;15.32;;;12.77;;
18162;SDS011;9206;50.994;4.538;2023-08-17T17:48:48;14.73;;;11.35;;
18162;SDS011;9206;50.994;4.538;2023-08-17T17:51:42;14.50;;;11.50;;
18162;SDS011;9206;50.994;4.538;2023-08-17T17:54:37;12.15;;;11.02;;
18162;SDS011;9206;50.994;4.538;2023-08-17T17:57:32;12.32;;;10.77;;
18162;SDS011;9206;50.994;4.538;2023-08-17T18:00:25;12.90;;;11.60;;
18162;SDS011;9206;50.994;4.538;2023-08-17T18:03:18;17.05;;;12.10;;
18162;SDS011;9206;50.994;4.538;2023-08-17T18:06:09;15.55;;;12.15;;
18162;SDS011;9206;50.994;4.538;2023-08-17T18:09:03;13.73;;;11.98;;
18162;SDS011;9206;50.994;4.538;2023-08-17T18:11:57;13.15;;;11.75;;
18162;SDS011;9206;50.994;4.538;2023-08-17T18:14:48;14.88;;;12.38;;
18162;SDS011;9206;50.994;4.538;2023-08-17T18:17:38;14.75;;;12.45;;
18162;SDS011;9206;50.994;4.538;2023-08-17T18:20:47;13.95;;;12.40;;
18162;SDS011;9206;50.994;4.538;2023-08-17T18:23:36;13.07;;;11.88;;
18162;SDS011;9206;50.994;4.538;2023-08-17T18:26:26;13.07;;;11.68;;
18162;SDS011;9206;50.994;4.538;2023-08-17T18:29:18;16.25;;;13.07;;
18162;SDS011;9206;50.994;4.538;2023-08-17T18:32:08;18.15;;;13.90;;
18162;SDS011;9206;50.994;4.538;2023-08-17T18:37:52;14.13;;;12.70;;
18162;SDS011;9206;50.994;4.538;2023-08-17T18:43:51;18.27;;;13.85;;
18162;SDS011;9206;50.994;4.538;2023-08-17T18:46:40;16.70;;;14.95;;
18162;SDS011;9206;50.994;4.538;2023-08-17T18:49:27;15.65;;;12.98;;
18162;SDS011;9206;50.994;4.538;2023-08-17T18:52:21;18.23;;;14.48;;
18162;SDS011;9206;50.994;4.538;2023-08-17T18:55:15;21.80;;;14.82;;
18162;SDS011;9206;50.994;4.538;2023-08-17T18:58:15;24.10;;;16.13;;
18162;SDS011;9206;50.994;4.538;2023-08-17T19:04:01;23.38;;;16.13;;
18162;SDS011;9206;50.994;4.538;2023-08-17T19:06:53;23.20;;;14.95;;
18162;SDS011;9206;50.994;4.538;2023-08-17T19:09:40;19.10;;;16.17;;
18162;SDS011;9206;50.994;4.538;2023-08-17T19:12:35;25.35;;;14.93;;
18162;SDS011;9206;50.994;4.538;2023-08-17T19:15:24;19.58;;;15.38;;
18162;SDS011;9206;50.994;4.538;2023-08-17T19:18:14;17.05;;;14.48;;
18162;SDS011;9206;50.994;4.538;2023-08-17T19:21:05;15.13;;;13.65;;
18162;SDS011;9206;50.994;4.538;2023-08-17T19:23:59;25.13;;;14.52;;
18162;SDS011;9206;50.994;4.538;2023-08-17T19:26:47;19.65;;;13.90;;
18162;SDS011;9206;50.994;4.538;2023-08-17T19:29:40;17.50;;;14.75;;
18162;SDS011;9206;50.994;4.538;2023-08-17T19:32:29;16.52;;;13.55;;
18162;SDS011;9206;50.994;4.538;2023-08-17T19:35:17;16.73;;;15.00;;
18162;SDS011;9206;50.994;4.538;2023-08-17T19:38:21;15.32;;;13.80;;
18162;SDS011;9206;50.994;4.538;2023-08-17T19:41:09;15.68;;;14.23;;
18162;SDS011;9206;50.994;4.538;2023-08-17T19:44:05;16.02;;;14.35;;
18162;SDS011;9206;50.994;4.538;2023-08-17T19:46:59;17.25;;;14.75;;
18162;SDS011;9206;50.994;4.538;2023-08-17T19:49:46;17.02;;;13.95;;
18162;SDS011;9206;50.994;4.538;2023-08-17T19:52:40;16.17;;;14.60;;
18162;SDS011;9206;50.994;4.538;2023-08-17T19:55:32;16.70;;;15.00;;
18162;SDS011;9206;50.994;4.538;2023-08-17T19:58:43;16.98;;;15.13;;
18162;SDS011;9206;50.994;4.538;2023-08-17T20:01:37;16.98;;;15.18;;
18162;SDS011;9206;50.994;4.538;2023-08-17T20:04:25;15.27;;;13.75;;
18162;SDS011;9206;50.994;4.538;2023-08-17T20:07:16;19.08;;;13.80;;
18162;SDS011;9206;50.994;4.538;2023-08-17T20:10:06;17.75;;;14.73;;
18162;SDS011;9206;50.994;4.538;2023-08-17T20:12:57;17.55;;;14.30;;
18162;SDS011;9206;50.994;4.538;2023-08-17T20:15:55;16.38;;;14.63;;
18162;SDS011;9206;50.994;4.538;2023-08-17T20:18:44;18.25;;;13.57;;
18162;SDS011;9206;50.994;4.538;2023-08-17T20:27:34;17.50;;;15.65;;
18162;SDS011;9206;50.994;4.538;2023-08-17T20:30:29;16.17;;;14.57;;
18162;SDS011;9206;50.994;4.538;2023-08-17T20:33:20;26.45;;;15.70;;
18162;SDS011;9206;50.994;4.538;2023-08-17T20:36:15;18.10;;;15.07;;